Time;durP1;ratioP1;P1;durP2;ratioP2;P2;SDS_P1;SDS_P2;PMS_P1;PMS_P2;Temp;Humidity;BMP_temperature;BMP_pressure;BME280_temperature;BME280_humidity;BME280_pressure;Samples;Min_cycle;Max_cycle;Signal;HPM_P1;HPM_P2
2022/08/24 00:12:28;;;;;;;36.70;32.83;;;18.80;99.90;;;;;;4859478;29;20044;-69
2022/08/24 00:14:54;;;;;;;34.58;31.23;;;18.90;99.90;;;;;;4847562;29;20094;-69
2022/08/24 00:17:19;;;;;;;36.10;32.60;;;18.80;99.90;;;;;;4840271;29;20063;-69
2022/08/24 00:20:11;;;;;;;34.28;30.73;;;18.70;99.90;;;;;;4842654;29;20144;-69
2022/08/24 00:22:38;;;;;;;38.58;34.55;;;18.70;99.90;;;;;;4841548;29;20057;-70
2022/08/24 00:25:05;;;;;;;36.30;32.50;;;18.70;99.90;;;;;;4841338;29;20050;-69
2022/08/24 00:27:30;;;;;;;33.15;29.90;;;18.60;99.90;;;;;;4841248;29;20065;-69
2022/08/24 00:29:56;;;;;;;36.67;32.97;;;18.50;99.90;;;;;;4862128;29;20056;-69
2022/08/24 00:32:22;;;;;;;36.28;32.88;;;18.50;99.90;;;;;;4871443;29;20057;-69
2022/08/24 00:34:47;;;;;;;36.65;33.08;;;18.50;99.90;;;;;;4861588;29;20056;-69
2022/08/24 00:37:13;;;;;;;39.47;35.40;;;18.50;99.90;;;;;;4884680;29;20041;-70
2022/08/24 00:39:39;;;;;;;39.00;35.30;;;18.50;99.90;;;;;;4885814;29;20061;-69
2022/08/24 00:42:04;;;;;;;38.75;34.78;;;18.50;99.90;;;;;;4895148;29;20055;-69
2022/08/24 00:44:33;;;;;;;34.42;31.20;;;18.50;99.90;;;;;;4880094;29;20108;-69
2022/08/24 00:47:35;;;;;;;33.22;30.02;;;18.40;99.90;;;;;;4874730;29;20049;-69
2022/08/24 00:56:38;;;;;;;36.45;32.80;;;18.20;99.90;;;;;;4878690;29;20045;-69
2022/08/24 00:59:31;;;;;;;36.45;32.85;;;18.20;99.90;;;;;;4876587;29;20410;-69
2022/08/24 01:02:31;;;;;;;35.60;30.85;;;18.10;99.90;;;;;;4882595;29;20049;-69
2022/08/24 01:08:31;;;;;;;34.85;31.42;;;18.00;99.90;;;;;;4866559;29;20060;-69
2022/08/24 01:11:09;;;;;;;39.22;35.15;;;18.00;99.90;;;;;;4865634;29;20040;-69
2022/08/24 01:20:06;;;;;;;40.25;36.42;;;17.80;99.90;;;;;;4890530;29;20387;-69
2022/08/24 01:26:07;;;;;;;30.73;27.80;;;17.80;99.90;;;;;;4893551;29;20053;-70
2022/08/24 01:28:33;;;;;;;33.35;30.13;;;17.80;99.90;;;;;;4876580;29;20123;-70
2022/08/24 01:30:58;;;;;;;32.22;29.20;;;17.70;99.90;;;;;;4898730;29;20136;-70
2022/08/24 01:33:28;;;;;;;34.20;30.70;;;17.70;99.90;;;;;;4900338;29;20131;-70
2022/08/24 01:35:58;;;;;;;32.80;29.75;;;17.70;99.90;;;;;;4894553;29;20055;-70
2022/08/24 01:38:24;;;;;;;35.97;32.50;;;17.60;99.90;;;;;;4890845;29;20044;-70
2022/08/24 01:40:56;;;;;;;35.35;31.88;;;17.60;99.90;;;;;;4867741;29;20067;-70
2022/08/24 01:43:23;;;;;;;37.10;33.47;;;17.60;99.90;;;;;;4895812;29;20477;-70
2022/08/24 01:45:49;;;;;;;34.58;31.15;;;17.60;99.90;;;;;;4895493;29;20406;-70
2022/08/24 01:48:14;;;;;;;31.58;28.45;;;17.60;99.90;;;;;;4899370;29;20115;-70
2022/08/24 01:50:43;;;;;;;37.13;33.33;;;17.50;99.90;;;;;;4889070;29;20044;-70
2022/08/24 01:53:38;;;;;;;38.20;34.40;;;17.50;99.90;;;;;;4875653;29;20302;-70
2022/08/24 01:56:18;;;;;;;36.95;33.28;;;17.40;99.90;;;;;;4881205;29;20122;-70
2022/08/24 01:59:19;;;;;;;38.75;34.85;;;17.40;99.90;;;;;;4858039;29;20501;-69
2022/08/24 02:02:05;;;;;;;41.28;36.42;;;17.40;99.90;;;;;;4864731;29;20053;-70
2022/08/24 02:05:23;;;;;;;38.70;34.95;;;17.40;99.90;;;;;;4864953;29;20041;-69
2022/08/24 02:07:50;;;;;;;34.00;30.70;;;17.50;99.90;;;;;;4871013;29;20132;-70
2022/08/24 02:10:20;;;;;;;38.22;34.22;;;17.40;99.90;;;;;;4888430;29;20068;-70
2022/08/24 02:12:56;;;;;;;39.35;35.20;;;17.40;99.90;;;;;;4894871;29;20116;-70
2022/08/24 02:15:47;;;;;;;34.90;31.15;;;17.40;99.90;;;;;;4883262;29;20060;-70
2022/08/24 02:18:13;;;;;;;34.72;31.35;;;17.30;99.90;;;;;;4898509;29;20255;-70
2022/08/24 02:20:40;;;;;;;36.78;33.13;;;17.30;99.90;;;;;;4868996;29;20049;-70
2022/08/24 02:23:07;;;;;;;41.33;37.38;;;17.30;99.90;;;;;;4868745;29;20061;-71
2022/08/24 02:25:33;;;;;;;41.92;37.55;;;17.30;99.90;;;;;;4881525;29;20510;-70
2022/08/24 02:28:05;;;;;;;38.10;34.10;;;17.40;99.90;;;;;;4896714;29;20056;-70
2022/08/24 02:31:22;;;;;;;37.50;33.83;;;17.40;99.90;;;;;;4870062;29;20057;-70
2022/08/24 02:33:49;;;;;;;36.78;32.90;;;17.30;99.90;;;;;;4887552;29;20049;-70
2022/08/24 02:36:40;;;;;;;37.42;33.65;;;17.30;99.90;;;;;;4867065;29;20497;-70
2022/08/24 02:39:06;;;;;;;37.17;33.38;;;17.30;99.90;;;;;;4867146;29;20063;-70
2022/08/24 02:41:33;;;;;;;40.53;36.42;;;17.30;99.90;;;;;;4858171;29;20064;-70
2022/08/24 02:43:59;;;;;;;39.80;35.97;;;17.30;99.90;;;;;;4899190;29;20462;-70
2022/08/24 02:46:27;;;;;;;39.03;35.05;;;17.30;99.90;;;;;;4881684;29;20091;-70
2022/08/24 02:48:53;;;;;;;34.28;31.02;;;17.30;99.90;;;;;;4882127;29;20059;-70
2022/08/24 02:51:25;;;;;;;34.13;30.73;;;17.20;99.90;;;;;;4888553;29;20061;-70
2022/08/24 02:53:51;;;;;;;36.03;32.42;;;17.20;99.90;;;;;;4894556;29;20064;-70
2022/08/24 02:56:17;;;;;;;36.08;32.45;;;17.20;99.90;;;;;;4881863;29;20079;-70
2022/08/24 02:58:46;;;;;;;35.47;32.08;;;17.10;99.90;;;;;;4885259;29;20080;-70
2022/08/24 03:01:12;;;;;;;41.22;37.13;;;17.10;99.90;;;;;;4897141;29;20048;-70
2022/08/24 03:03:38;;;;;;;40.88;36.90;;;17.10;99.90;;;;;;4884167;29;20053;-70
2022/08/24 03:06:05;;;;;;;35.30;31.88;;;17.10;99.90;;;;;;4881207;29;20057;-70
2022/08/24 03:08:31;;;;;;;36.92;33.33;;;17.10;99.90;;;;;;4897919;29;20061;-70
2022/08/24 03:10:59;;;;;;;35.67;32.13;;;17.10;99.90;;;;;;4899217;29;20053;-70
2022/08/24 03:13:26;;;;;;;37.42;33.70;;;17.00;99.90;;;;;;4891736;29;20140;-70
2022/08/24 03:15:52;;;;;;;34.95;31.48;;;17.00;99.90;;;;;;4881810;29;20053;-70
2022/08/24 03:18:18;;;;;;;36.08;32.50;;;17.00;99.90;;;;;;4864710;29;20057;-70
2022/08/24 03:20:44;;;;;;;35.33;31.98;;;17.10;99.90;;;;;;4898006;29;20511;-70
2022/08/24 03:23:09;;;;;;;36.83;33.03;;;17.00;99.90;;;;;;4871110;29;20080;-70
2022/08/24 03:25:35;;;;;;;37.28;33.67;;;17.00;99.90;;;;;;4881595;29;20477;-70
2022/08/24 03:28:01;;;;;;;40.38;36.28;;;17.00;99.90;;;;;;4891127;29;20053;-70
2022/08/24 03:30:27;;;;;;;41.25;37.17;;;17.00;99.90;;;;;;4864173;29;20044;-70
2022/08/24 03:32:53;;;;;;;38.88;35.15;;;17.00;99.90;;;;;;4863086;29;20065;-71
2022/08/24 03:35:20;;;;;;;36.72;33.03;;;17.00;99.90;;;;;;4895368;29;20071;-70
2022/08/24 03:37:47;;;;;;;41.17;37.17;;;17.00;99.90;;;;;;4875282;29;20136;-70
2022/08/24 03:40:13;;;;;;;38.65;34.55;;;17.10;99.90;;;;;;4880109;29;20104;-70
2022/08/24 03:42:39;;;;;;;35.67;32.08;;;16.90;99.90;;;;;;4873551;29;20052;-70
2022/08/24 03:45:06;;;;;;;37.90;33.92;;;16.90;99.90;;;;;;4867452;29;20049;-70
2022/08/24 03:47:31;;;;;;;36.20;32.70;;;16.90;99.90;;;;;;4881252;29;20060;-70
2022/08/24 03:49:57;;;;;;;39.80;35.67;;;16.80;99.90;;;;;;4879441;29;20048;-69
2022/08/24 03:52:22;;;;;;;36.60;33.00;;;16.80;99.90;;;;;;4886434;29;20145;-70
2022/08/24 03:54:48;;;;;;;37.58;33.58;;;16.80;99.90;;;;;;4868748;29;20070;-70
2022/08/24 03:57:14;;;;;;;38.22;34.28;;;16.80;99.90;;;;;;4895626;29;20123;-70
2022/08/24 03:59:39;;;;;;;38.55;34.75;;;16.80;99.90;;;;;;4880816;29;20052;-70
2022/08/24 04:02:05;;;;;;;41.22;36.85;;;16.70;99.90;;;;;;4880532;29;20048;-70
2022/08/24 04:04:31;;;;;;;37.60;33.83;;;16.70;99.90;;;;;;4863264;29;20068;-70
2022/08/24 04:06:57;;;;;;;36.40;32.72;;;16.70;99.90;;;;;;4862477;29;20607;-70
2022/08/24 04:09:23;;;;;;;35.95;32.33;;;16.70;99.90;;;;;;4888284;29;20057;-70
2022/08/24 04:11:49;;;;;;;38.50;34.70;;;16.70;99.90;;;;;;4880463;29;20051;-70
2022/08/24 04:14:16;;;;;;;38.83;34.67;;;16.60;99.90;;;;;;4879627;29;20053;-70
2022/08/24 04:16:44;;;;;;;35.63;32.22;;;16.60;99.90;;;;;;4880694;29;20115;-70
2022/08/24 04:19:10;;;;;;;42.08;37.78;;;16.70;99.90;;;;;;4894178;29;20040;-70
2022/08/24 04:21:36;;;;;;;44.38;39.10;;;16.60;99.90;;;;;;4896894;29;20064;-70
2022/08/24 04:24:04;;;;;;;43.53;39.15;;;16.70;99.90;;;;;;4878839;29;20060;-70
2022/08/24 04:26:31;;;;;;;40.65;36.70;;;16.70;99.90;;;;;;4862333;29;20100;-70
2022/08/24 04:28:57;;;;;;;39.63;35.58;;;16.70;99.90;;;;;;4881514;29;20052;-70
2022/08/24 04:31:23;;;;;;;40.50;36.17;;;16.70;99.90;;;;;;4881059;29;20162;-70
2022/08/24 04:33:50;;;;;;;35.58;32.13;;;16.70;99.90;;;;;;4879688;29;20052;-70
2022/08/24 04:36:18;;;;;;;38.65;34.60;;;16.70;99.90;;;;;;4877239;29;20127;-69
2022/08/24 04:38:45;;;;;;;39.75;35.72;;;16.70;99.90;;;;;;4867468;29;20060;-70
2022/08/24 04:41:13;;;;;;;40.00;35.80;;;16.60;99.90;;;;;;4886375;29;20060;-70
2022/08/24 04:43:41;;;;;;;44.72;39.90;;;16.60;99.90;;;;;;4862489;29;20053;-70
2022/08/24 04:46:08;;;;;;;36.97;33.38;;;16.60;99.90;;;;;;4880947;29;20083;-70
2022/08/24 04:48:34;;;;;;;37.58;33.78;;;16.70;99.90;;;;;;4891503;29;20196;-70
2022/08/24 04:51:05;;;;;;;40.85;36.80;;;16.60;99.90;;;;;;4896093;29;20056;-70
2022/08/24 04:53:31;;;;;;;35.90;32.42;;;16.60;99.90;;;;;;4880742;29;20139;-68
2022/08/24 04:55:58;;;;;;;37.63;33.50;;;16.70;99.90;;;;;;4890666;29;20052;-68
2022/08/24 04:58:24;;;;;;;39.20;35.15;;;16.70;99.90;;;;;;4896983;29;20419;-70
2022/08/24 05:00:59;;;;;;;35.15;31.58;;;16.70;99.90;;;;;;4884824;29;20060;-70
2022/08/24 05:03:25;;;;;;;36.45;32.88;;;16.70;99.90;;;;;;4867853;29;20073;-68
2022/08/24 05:05:51;;;;;;;34.00;30.40;;;16.70;99.90;;;;;;4888375;29;20112;-69
2022/08/24 05:08:42;;;;;;;40.80;36.63;;;16.70;99.90;;;;;;4874450;29;20055;-68
2022/08/24 05:12:00;;;;;;;36.95;33.13;;;16.80;99.90;;;;;;4869172;29;20574;-69
2022/08/24 05:14:33;;;;;;;38.53;34.65;;;16.80;99.90;;;;;;4881070;29;20060;-70
2022/08/24 05:17:29;;;;;;;37.60;33.78;;;16.80;99.90;;;;;;4851723;29;20133;-69
2022/08/24 05:20:20;;;;;;;40.20;36.20;;;16.90;99.90;;;;;;4850075;29;20058;-69
2022/08/24 05:22:46;;;;;;;35.95;32.33;;;16.90;99.90;;;;;;4858343;29;20460;-68
2022/08/24 05:25:15;;;;;;;34.10;30.85;;;17.00;99.90;;;;;;4851012;29;20054;-69
2022/08/24 05:27:47;;;;;;;29.63;26.73;;;17.00;99.90;;;;;;4844991;29;20101;-69
2022/08/24 05:30:38;;;;;;;31.75;28.75;;;17.00;99.90;;;;;;4846383;29;20497;-69
2022/08/24 05:33:33;;;;;;;33.15;30.05;;;17.10;99.90;;;;;;4841038;29;20053;-69
2022/08/24 05:36:03;;;;;;;29.87;27.10;;;17.10;99.90;;;;;;4858401;29;20042;-69
2022/08/24 05:38:33;;;;;;;31.90;28.85;;;17.20;99.90;;;;;;4851870;29;20124;-69
2022/08/24 05:41:49;;;;;;;34.67;31.33;;;17.30;99.90;;;;;;4848715;29;20037;-69
2022/08/24 05:44:23;;;;;;;32.28;29.25;;;17.30;99.90;;;;;;4858956;29;20428;-69
2022/08/24 05:46:50;;;;;;;37.92;31.80;;;17.50;99.90;;;;;;4859305;29;20049;-69
2022/08/24 05:49:16;;;;;;;31.55;28.27;;;17.60;99.90;;;;;;4854848;29;20049;-69
2022/08/24 05:51:42;;;;;;;29.75;26.95;;;17.70;99.90;;;;;;4859684;29;20049;-69
2022/08/24 05:54:10;;;;;;;30.90;28.00;;;17.80;99.90;;;;;;4862581;29;20136;-69
2022/08/24 05:56:36;;;;;;;32.63;29.42;;;18.50;99.90;;;;;;4838710;29;20064;-69
2022/08/24 05:59:02;;;;;;;35.80;32.38;;;19.40;99.90;;;;;;4837591;29;20153;-69
2022/08/24 06:01:28;;;;;;;39.65;35.38;;;20.20;99.90;;;;;;4862310;29;20128;-70
2022/08/24 06:03:55;;;;;;;37.22;33.50;;;20.70;99.90;;;;;;4861428;29;20095;-71
2022/08/24 06:06:23;;;;;;;42.03;37.72;;;20.60;99.90;;;;;;4855518;29;20100;-70
2022/08/24 06:08:53;;;;;;;33.75;30.67;;;20.40;99.90;;;;;;4858540;29;20114;-69
2022/08/24 06:11:23;;;;;;;38.80;34.85;;;20.10;99.90;;;;;;4856745;29;20133;-67
2022/08/24 06:13:53;;;;;;;40.00;36.00;;;19.90;99.90;;;;;;4851152;29;20065;-68
2022/08/24 06:16:19;;;;;;;35.78;32.28;;;19.80;99.90;;;;;;4854983;29;20057;-69
2022/08/24 06:18:45;;;;;;;33.78;30.50;;;19.80;99.90;;;;;;4844175;29;20102;-69
2022/08/24 06:28:59;;;;;;;41.00;36.85;;;19.90;99.90;;;;;;4861064;29;20050;-69
2022/08/24 06:31:26;;;;;;;42.15;37.83;;;20.00;99.90;;;;;;4850383;29;20065;-69
2022/08/24 06:34:42;;;;;;;40.65;36.58;;;20.10;99.90;;;;;;4848228;29;20560;-69
2022/08/24 06:37:08;;;;;;;45.72;40.92;;;20.20;99.90;;;;;;4845904;29;20050;-69
2022/08/24 06:39:59;;;;;;;43.60;39.22;;;20.30;99.90;;;;;;4842138;29;20114;-69
2022/08/24 06:42:25;;;;;;;39.83;35.85;;;20.40;99.90;;;;;;4846589;29;20077;-69
2022/08/24 06:53:04;;;;;;;41.50;37.28;;;20.90;99.90;;;;;;4848397;29;20067;-70
2022/08/24 06:59:15;;;;;;;41.13;37.10;;;21.10;99.90;;;;;;4859606;29;20077;-70
2022/08/24 07:01:41;;;;;;;41.20;37.20;;;21.30;99.90;;;;;;4860522;29;20528;-70
2022/08/24 07:04:58;;;;;;;38.88;35.13;;;21.40;99.90;;;;;;4859544;29;20054;-70
2022/08/24 07:07:53;;;;;;;39.58;35.78;;;21.50;99.90;;;;;;4849815;29;20134;-70
2022/08/24 07:10:18;;;;;;;42.78;38.08;;;21.70;99.90;;;;;;4856858;29;20053;-70
2022/08/24 07:12:44;;;;;;;41.10;37.10;;;21.80;99.90;;;;;;4860914;29;20069;-70
2022/08/24 07:15:10;;;;;;;36.17;32.78;;;21.90;99.90;;;;;;4848069;29;20041;-70
2022/08/24 07:18:01;;;;;;;37.63;33.80;;;22.00;99.90;;;;;;4846434;29;20084;-69
2022/08/24 07:21:12;;;;;;;36.47;33.07;;;22.20;99.90;;;;;;4876666;29;20128;-69
2022/08/24 07:24:06;;;;;;;29.08;26.23;;;22.30;99.90;;;;;;4885218;29;20428;-69
2022/08/24 07:26:59;;;;;;;29.13;26.15;;;22.50;99.90;;;;;;4898600;29;20088;-69
2022/08/24 07:29:58;;;;;;;29.75;26.73;;;22.60;99.90;;;;;;4886504;29;20057;-70
2022/08/24 07:33:13;;;;;;;22.52;20.52;;;22.70;99.90;;;;;;4894785;29;20059;-69
2022/08/24 07:35:58;;;;;;;25.95;23.42;;;22.90;99.90;;;;;;4892931;29;20055;-70
2022/08/24 07:38:24;;;;;;;29.10;26.17;;;23.00;99.90;;;;;;4862831;29;20064;-70
2022/08/24 07:53:58;;;;;;;23.85;21.55;;;23.70;99.90;;;;;;4888659;29;20061;-70
2022/08/24 08:00:56;;;;;;;21.58;19.77;;;24.00;99.90;;;;;;4880920;29;20046;-70
2022/08/24 08:11:02;;;;;;;21.13;19.23;;;24.30;99.90;;;;;;4896534;29;19994;-69
2022/08/24 08:14:05;;;;;;;24.25;21.23;;;24.50;99.90;;;;;;4896432;29;20493;-69
2022/08/24 08:16:31;;;;;;;21.83;19.80;;;24.60;99.90;;;;;;4896666;29;20442;-69
2022/08/24 08:18:56;;;;;;;20.98;18.67;;;24.70;99.90;;;;;;4897440;29;20053;-69
2022/08/24 08:24:16;;;;;;;17.40;15.52;;;24.90;99.90;;;;;;4886516;29;20056;-69
2022/08/24 08:26:43;;;;;;;13.88;12.50;;;24.90;99.90;;;;;;4897535;29;20494;-70
2022/08/24 08:32:16;;;;;;;11.63;9.65;;;25.10;99.90;;;;;;4881589;29;20049;-69
2022/08/24 08:34:45;;;;;;;9.63;8.32;;;25.30;99.90;;;;;;4880630;29;20123;-69
2022/08/24 08:37:12;;;;;;;11.30;9.73;;;25.20;99.90;;;;;;4897199;29;20044;-69
2022/08/24 08:39:39;;;;;;;10.88;8.43;;;25.40;99.90;;;;;;4878872;29;20084;-69
2022/08/24 08:42:13;;;;;;;12.15;10.60;;;25.60;99.90;;;;;;4897667;29;20051;-69
2022/08/24 08:44:54;;;;;;;10.57;9.48;;;25.70;99.90;;;;;;4879424;29;20133;-69
2022/08/24 08:47:56;;;;;;;15.50;12.20;;;25.80;99.90;;;;;;4896784;29;20099;-69
2022/08/24 08:50:39;;;;;;;12.82;11.27;;;25.90;99.90;;;;;;4896709;29;20156;-69
2022/08/24 08:53:30;;;;;;;13.15;10.68;;;26.00;99.90;;;;;;4880577;29;20057;-70
2022/08/24 08:56:04;;;;;;;11.18;10.07;;;26.10;99.90;;;;;;4896919;29;20095;-70
2022/08/24 08:58:36;;;;;;;15.77;12.05;;;26.10;99.90;;;;;;4881090;29;20044;-70
2022/08/24 09:01:05;;;;;;;;;;;26.20;99.90;;;;;;4898133;29;20048;-70
2022/08/24 09:04:18;;;;;;;13.00;11.75;;;26.20;99.90;;;;;;4897465;29;20329;-69
2022/08/24 09:06:51;;;;;;;13.70;11.90;;;26.20;99.90;;;;;;4878354;29;20498;-70
2022/08/24 09:09:35;;;;;;;13.68;11.30;;;26.30;99.90;;;;;;4866673;29;20064;-70
2022/08/24 09:12:43;;;;;;;11.10;8.82;;;26.30;99.90;;;;;;4879638;29;20060;-69
2022/08/24 09:15:16;;;;;;;11.75;9.93;;;26.40;99.90;;;;;;4879908;29;20131;-69
2022/08/24 09:18:00;;;;;;;10.75;9.18;;;26.40;99.90;;;;;;4897386;29;20052;-70
2022/08/24 09:20:44;;;;;;;10.95;9.40;;;26.40;99.90;;;;;;4880547;29;20135;-69
2022/08/24 09:23:31;;;;;;;10.20;9.13;;;26.50;99.90;;;;;;4899013;29;20052;-70
2022/08/24 09:26:08;;;;;;;13.00;9.65;;;26.60;99.90;;;;;;4884229;29;20445;-69
2022/08/24 09:28:43;;;;;;;13.07;9.88;;;26.70;99.90;;;;;;4900476;29;20040;-70
2022/08/24 09:31:35;;;;;;;10.70;9.60;;;26.80;99.90;;;;;;4900788;29;20507;-70
2022/08/24 09:34:28;;;;;;;10.50;8.93;;;26.80;99.90;;;;;;4899067;29;20358;-69
2022/08/24 09:37:03;;;;;;;10.20;9.15;;;27.00;99.90;;;;;;4882549;29;20061;-69
2022/08/24 09:39:46;;;;;;;13.82;10.07;;;27.00;99.90;;;;;;4883390;29;20060;-70
2022/08/24 09:42:44;;;;;;;9.75;8.77;;;27.00;99.90;;;;;;4899762;29;20055;-70
2022/08/24 09:45:29;;;;;;;7.75;6.88;;;27.00;99.90;;;;;;4882098;29;20506;-70
2022/08/24 09:48:18;;;;;;;9.00;8.10;;;27.00;99.90;;;;;;4890569;29;20140;-70
2022/08/24 09:51:05;;;;;;;8.45;7.18;;;27.10;99.90;;;;;;4900841;29;20059;-70
2022/08/24 09:53:52;;;;;;;11.07;8.57;;;27.20;99.90;;;;;;4898790;29;20056;-70
2022/08/24 09:56:23;;;;;;;9.50;8.65;;;27.30;99.90;;;;;;4878119;29;20056;-70
2022/08/24 09:59:01;;;;;;;9.77;8.63;;;27.40;99.90;;;;;;4885138;29;20056;-70
2022/08/24 10:01:41;;;;;;;9.00;8.07;;;27.50;99.90;;;;;;4882211;29;20064;-70
2022/08/24 10:04:30;;;;;;;11.05;8.13;;;27.60;99.90;;;;;;4900522;29;20058;-70
2022/08/24 10:07:33;;;;;;;11.65;8.50;;;27.60;99.90;;;;;;4898430;29;20092;-69
2022/08/24 10:10:20;;;;;;;9.15;8.23;;;27.70;99.90;;;;;;4881678;29;20056;-69
2022/08/24 10:16:44;;;;;;;7.18;6.47;;;27.80;99.90;;;;;;4882446;29;20423;-70
2022/08/24 10:19:35;;;;;;;7.13;5.38;;;27.80;99.90;;;;;;4890546;29;20451;-70
2022/08/24 10:22:31;;;;;;;7.05;5.05;;;27.90;99.90;;;;;;4881490;29;20052;-70
2022/08/24 10:25:11;;;;;;;11.63;5.97;;;27.90;99.90;;;;;;4900235;29;20124;-68
2022/08/24 10:28:05;;;;;;;6.40;4.93;;;28.00;99.90;;;;;;4898454;29;20052;-69
2022/08/24 10:30:54;;;;;;;4.72;4.22;;;28.10;99.90;;;;;;4899744;29;20409;-70
2022/08/24 10:33:22;;;;;;;5.32;4.72;;;28.10;99.90;;;;;;4881903;29;20135;-69
2022/08/24 10:36:06;;;;;;;5.40;4.40;;;28.20;99.90;;;;;;4881952;29;20053;-68
2022/08/24 10:41:54;;;;;;;4.95;4.45;;;28.20;99.90;;;;;;4899401;29;20048;-68
2022/08/24 10:44:28;;;;;;;8.23;3.63;;;28.30;99.90;;;;;;4879273;29;20052;-68
2022/08/24 10:46:59;;;;;;;3.83;2.92;;;28.30;99.90;;;;;;4881594;29;20056;-68
2022/08/24 10:49:33;;;;;;;3.73;3.43;;;28.30;99.90;;;;;;4889669;29;20099;-67
2022/08/24 10:52:26;;;;;;;3.90;2.88;;;28.40;99.90;;;;;;4880755;29;20053;-70
2022/08/24 10:54:52;;;;;;;5.22;3.20;;;28.50;99.50;;;;;;4896812;29;20498;-69
2022/08/24 10:57:51;;;;;;;3.42;3.13;;;28.50;98.90;;;;;;4899106;29;20057;-68
2022/08/24 11:00:20;;;;;;;4.10;3.80;;;28.50;99.90;;;;;;4895408;29;20100;-68
2022/08/24 11:02:48;;;;;;;4.85;3.72;;;28.50;98.80;;;;;;4896299;29;20040;-68
2022/08/24 11:05:28;;;;;;;3.35;2.90;;;28.50;98.30;;;;;;4899210;29;20092;-68
2022/08/24 11:07:59;;;;;;;4.78;3.42;;;28.60;97.70;;;;;;4896709;29;20473;-67
2022/08/24 11:10:31;;;;;;;4.05;2.85;;;28.60;99.60;;;;;;4899943;29;20413;-68
2022/08/24 11:13:32;;;;;;;4.28;2.60;;;28.60;98.80;;;;;;4898046;29;20056;-68
2022/08/24 11:16:00;;;;;;;3.05;2.58;;;28.70;95.90;;;;;;4880888;29;20057;-68
2022/08/24 11:18:46;;;;;;;3.03;2.50;;;28.60;96.20;;;;;;4894166;29;20127;-69
2022/08/24 11:21:30;;;;;;;3.70;2.40;;;28.70;94.40;;;;;;4893642;29;20103;-68
2022/08/24 11:24:01;;;;;;;4.90;2.42;;;28.80;97.60;;;;;;4895984;29;20401;-69
2022/08/24 11:26:27;;;;;;;5.85;2.70;;;28.90;96.20;;;;;;4894495;29;20527;-69
2022/08/24 11:28:59;;;;;;;3.03;2.72;;;29.00;95.20;;;;;;4880968;29;20080;-69
2022/08/24 11:31:37;;;;;;;4.88;2.65;;;29.10;94.10;;;;;;4896594;29;20052;-68
2022/08/24 11:34:54;;;;;;;3.20;2.55;;;29.10;93.70;;;;;;4877362;29;20060;-68
2022/08/24 11:37:31;;;;;;;3.08;2.20;;;29.10;93.10;;;;;;4896967;29;20060;-68
2022/08/24 11:39:58;;;;;;;3.85;2.33;;;29.10;91.50;;;;;;4897749;29;20486;-69
2022/08/24 11:42:52;;;;;;;2.03;1.80;;;29.20;91.40;;;;;;4897925;29;20389;-69
2022/08/24 11:45:23;;;;;;;3.65;2.47;;;29.10;90.30;;;;;;4894786;29;20052;-69
2022/08/24 11:47:49;;;;;;;;;;;29.10;91.50;;;;;;4880888;29;20055;-70
2022/08/24 11:50:23;;;;;;;2.25;1.98;;;29.10;86.80;;;;;;4880209;29;19924;-68
2022/08/24 11:53:00;;;;;;;2.22;1.95;;;29.20;92.50;;;;;;4897775;29;20143;-67
2022/08/24 11:55:47;;;;;;;1.70;1.60;;;29.30;92.90;;;;;;4879237;29;20123;-68
2022/08/24 11:58:34;;;;;;;3.40;2.15;;;29.40;90.20;;;;;;4895849;29;20175;-69
2022/08/24 12:01:09;;;;;;;3.35;1.90;;;29.50;90.70;;;;;;4874831;29;20514;-68
2022/08/24 12:03:42;;;;;;;2.40;1.90;;;29.60;91.50;;;;;;4889941;29;20084;-69
2022/08/24 12:06:20;;;;;;;2.90;1.80;;;29.60;92.00;;;;;;4879309;29;20063;-69
2022/08/24 12:08:56;;;;;;;3.70;1.80;;;29.70;89.90;;;;;;4880394;29;20052;-68
2022/08/24 12:11:54;;;;;;;1.70;1.60;;;29.70;89.50;;;;;;4896392;29;20068;-68
2022/08/24 12:14:47;;;;;;;2.08;1.80;;;29.70;83.80;;;;;;4862724;29;20462;-69
2022/08/24 12:17:40;;;;;;;1.38;1.27;;;29.70;84.50;;;;;;4878568;29;20060;-68
2022/08/24 12:20:27;;;;;;;2.55;1.30;;;29.70;85.90;;;;;;4881023;29;20489;-68
2022/08/24 12:22:57;;;;;;;1.48;1.38;;;29.80;84.20;;;;;;4893861;29;20099;-68
2022/08/24 12:28:09;;;;;;;3.40;1.80;;;29.80;84.30;;;;;;4881217;29;20052;-68
2022/08/24 12:30:35;;;;;;;3.22;1.60;;;29.80;81.80;;;;;;4897313;29;20060;-67
2022/08/24 12:33:11;;;;;;;1.92;1.70;;;29.80;82.20;;;;;;4879301;29;20104;-68
2022/08/24 12:35:54;;;;;;;3.17;1.73;;;29.80;82.70;;;;;;4897080;29;20049;-67
2022/08/24 12:38:28;;;;;;;2.30;1.50;;;29.90;80.00;;;;;;4894134;29;20052;-68
2022/08/24 12:41:14;;;;;;;4.55;1.70;;;29.90;82.40;;;;;;4893171;29;20076;-68
2022/08/24 12:43:53;;;;;;;3.15;1.60;;;29.90;77.70;;;;;;4894206;29;20060;-68
2022/08/24 12:46:25;;;;;;;2.30;1.60;;;29.90;78.30;;;;;;4896101;29;20057;-66
2022/08/24 12:49:09;;;;;;;;;;;30.00;78.80;;;;;;4898621;29;20430;-66
2022/08/24 12:52:04;;;;;;;2.95;1.55;;;30.00;80.50;;;;;;4879521;29;19931;-67
2022/08/24 12:54:55;;;;;;;1.30;1.20;;;30.10;78.90;;;;;;4899004;29;20382;-67
2022/08/24 12:57:48;;;;;;;2.25;1.52;;;30.20;77.40;;;;;;4900983;29;20146;-67
2022/08/24 13:00:27;;;;;;;2.22;1.38;;;30.20;77.40;;;;;;4901943;29;20060;-66
2022/08/24 13:02:57;;;;;;;1.42;1.33;;;30.20;77.70;;;;;;4900074;29;20347;-67
2022/08/24 13:05:23;;;;;;;1.58;1.48;;;30.10;74.90;;;;;;4869086;29;20091;-66
2022/08/24 13:07:53;;;;;;;2.38;1.55;;;30.00;76.30;;;;;;4882507;29;20063;-67
2022/08/24 13:10:22;;;;;;;1.70;1.60;;;30.00;75.70;;;;;;4899506;29;20053;-67
2022/08/24 13:13:03;;;;;;;2.50;1.50;;;30.00;75.50;;;;;;4881166;29;20084;-65
2022/08/24 13:15:28;;;;;;;2.75;1.73;;;30.00;74.50;;;;;;4899631;29;20509;-67
2022/08/24 13:18:05;;;;;;;1.90;1.80;;;30.10;74.10;;;;;;4901555;29;20060;-67
2022/08/24 13:20:37;;;;;;;3.03;1.60;;;30.10;72.20;;;;;;4913815;29;20401;-67
2022/08/24 13:23:13;;;;;;;3.55;1.73;;;30.00;73.00;;;;;;4908355;29;20064;-66
2022/08/24 13:25:50;;;;;;;3.85;1.42;;;30.00;72.20;;;;;;4907247;29;20052;-68
2022/08/24 13:28:19;;;;;;;3.22;1.60;;;30.10;71.70;;;;;;4898683;29;20057;-67
2022/08/24 13:31:17;;;;;;;2.35;1.67;;;30.20;71.10;;;;;;4882871;29;20160;-66
2022/08/24 13:33:55;;;;;;;1.77;1.42;;;30.20;71.50;;;;;;4901289;29;20048;-67
2022/08/24 13:36:51;;;;;;;3.17;1.60;;;30.20;70.30;;;;;;4905925;29;20066;-67
2022/08/24 13:39:31;;;;;;;2.33;1.58;;;30.30;70.10;;;;;;4892158;29;20048;-67
2022/08/24 13:42:22;;;;;;;1.52;1.42;;;30.30;69.70;;;;;;4892188;29;20067;-67
2022/08/24 13:45:13;;;;;;;2.60;1.40;;;30.30;68.60;;;;;;4905824;29;20049;-68
2022/08/24 13:47:58;;;;;;;3.72;1.30;;;30.30;68.90;;;;;;4910551;29;20059;-67
2022/08/24 13:50:32;;;;;;;1.50;1.40;;;30.20;68.20;;;;;;4896124;29;20087;-67
2022/08/24 13:53:27;;;;;;;1.30;1.20;;;30.20;69.70;;;;;;4890863;29;20056;-67
2022/08/24 13:56:10;;;;;;;2.92;1.13;;;30.20;69.50;;;;;;4906872;29;20133;-67
2022/08/24 14:02:41;;;;;;;4.18;1.48;;;30.30;67.30;;;;;;4885322;29;20095;-67
2022/08/24 14:10:00;;;;;;;1.23;1.13;;;30.30;67.40;;;;;;4898790;29;20131;-69
2022/08/24 14:19:37;;;;;;;4.03;1.40;;;30.10;67.20;;;;;;4881138;29;20074;-67
2022/08/24 14:22:09;;;;;;;3.40;1.45;;;30.10;66.70;;;;;;4879793;29;20131;-67
2022/08/24 14:24:47;;;;;;;3.25;1.48;;;30.10;67.00;;;;;;4877700;29;20112;-67
2022/08/24 14:27:36;;;;;;;1.40;1.30;;;30.20;68.20;;;;;;4895102;29;20221;-67
2022/08/24 14:30:17;;;;;;;1.73;1.60;;;30.10;68.90;;;;;;4897990;29;20060;-67
2022/08/24 14:32:57;;;;;;;3.23;1.80;;;30.10;68.40;;;;;;4883240;29;20091;-68
2022/08/24 14:35:41;;;;;;;1.92;1.50;;;30.00;69.30;;;;;;4896415;29;20075;-67
2022/08/24 14:38:21;;;;;;;2.70;1.38;;;29.90;68.10;;;;;;4878733;29;20106;-68
2022/08/24 14:41:18;;;;;;;1.57;1.40;;;29.90;67.30;;;;;;4897733;29;20056;-68
2022/08/24 14:44:13;;;;;;;1.75;1.42;;;29.90;67.80;;;;;;4897582;29;20435;-66
2022/08/24 14:47:07;;;;;;;3.95;1.70;;;29.90;67.80;;;;;;4898435;29;20095;-67
2022/08/24 14:50:04;;;;;;;1.35;1.30;;;30.00;67.50;;;;;;4889283;29;20056;-68
2022/08/24 14:52:49;;;;;;;2.10;1.40;;;30.10;68.60;;;;;;4874149;29;20485;-68
2022/08/24 14:55:25;;;;;;;1.30;1.20;;;30.10;68.80;;;;;;4906231;29;20055;-67
2022/08/24 14:58:27;;;;;;;2.17;1.50;;;30.10;68.60;;;;;;4901928;29;20100;-67
2022/08/24 15:01:18;;;;;;;1.90;1.52;;;30.00;67.00;;;;;;4902971;29;20084;-67
2022/08/24 15:04:05;;;;;;;1.50;1.20;;;30.00;69.00;;;;;;4903867;29;20048;-68
2022/08/24 15:06:50;;;;;;;1.48;1.38;;;29.90;69.50;;;;;;4886416;29;20056;-67
2022/08/24 15:09:34;;;;;;;1.50;1.40;;;29.90;67.60;;;;;;4903701;29;20438;-68
2022/08/24 15:12:37;;;;;;;1.63;1.38;;;29.80;67.40;;;;;;4903900;29;20056;-68